createdAt,value
2019-03-28T00:01:01.192Z,9.43
2019-03-28T00:07:05.837Z,9.39
2019-03-28T00:13:10.559Z,9.20
2019-03-28T00:19:15.178Z,9.18
2019-03-28T00:25:20.181Z,9.20
2019-03-28T00:31:24.755Z,9.18
2019-03-28T00:37:29.326Z,9.05
2019-03-28T00:43:34.009Z,8.83
2019-03-28T00:49:38.589Z,8.91
2019-03-28T00:55:43.244Z,9.07
2019-03-28T01:01:47.918Z,8.88
2019-03-28T01:07:52.583Z,8.99
2019-03-28T01:13:57.158Z,8.80
2019-03-28T01:20:01.767Z,8.84
2019-03-28T01:26:06.442Z,8.92
2019-03-28T01:32:11.087Z,8.84
2019-03-28T01:38:15.753Z,8.62
2019-03-28T01:44:20.328Z,8.65
2019-03-28T01:50:24.950Z,8.75
2019-03-28T01:56:29.519Z,8.60
2019-03-28T02:02:34.175Z,8.66
2019-03-28T02:08:38.844Z,8.36
2019-03-28T02:14:43.433Z,8.53
2019-03-28T02:20:48.046Z,8.47
2019-03-28T02:26:52.620Z,8.57
2019-03-28T02:32:57.208Z,8.37
2019-03-28T02:39:01.818Z,8.38
2019-03-28T02:45:08.119Z,8.54
2019-03-28T02:51:12.745Z,8.54
2019-03-28T02:57:17.347Z,8.61
2019-03-28T03:03:21.947Z,8.60
2019-03-28T03:09:26.562Z,8.64
2019-03-28T03:15:31.286Z,8.68
2019-03-28T03:21:36.054Z,8.63
2019-03-28T03:27:56.163Z,8.67
2019-03-28T03:33:47.336Z,8.68
2019-03-28T03:39:51.951Z,8.56
2019-03-28T03:45:56.540Z,8.51
2019-03-28T03:52:01.178Z,8.59
2019-03-28T03:58:15.617Z,8.59
2019-03-28T04:04:12.221Z,8.69
2019-03-28T04:10:16.817Z,8.77
2019-03-28T04:16:21.451Z,8.75
2019-03-28T04:22:26.034Z,8.49
2019-03-28T04:28:32.574Z,8.59
2019-03-28T04:34:36.959Z,8.51
2019-03-28T04:40:41.619Z,8.57
2019-03-28T04:46:46.190Z,8.53
2019-03-28T04:52:52.903Z,8.33
2019-03-28T04:58:57.133Z,8.31
2019-03-28T05:05:01.695Z,8.24
2019-03-28T05:11:07.300Z,8.23
2019-03-28T05:17:11.898Z,8.22
2019-03-28T05:23:16.480Z,8.15
2019-03-28T05:29:22.052Z,8.34
2019-03-28T05:35:26.645Z,8.18
2019-03-28T05:41:31.232Z,8.34
2019-03-28T05:47:35.822Z,8.32
2019-03-28T05:53:40.465Z,8.46
2019-03-28T05:59:45.370Z,8.53
2019-03-28T06:05:50.097Z,8.57
2019-03-28T06:11:54.832Z,8.64
2019-03-28T06:17:59.454Z,8.89
2019-03-28T06:24:04.049Z,9.09
2019-03-28T06:30:10.435Z,9.23
2019-03-28T06:36:15.015Z,9.45
2019-03-28T06:42:19.617Z,9.51
2019-03-28T06:48:24.208Z,9.57
2019-03-28T06:54:28.810Z,9.83
2019-03-28T07:00:33.485Z,9.91
2019-03-28T07:06:38.095Z,9.93
2019-03-28T07:12:42.687Z,10.10
2019-03-28T07:18:47.366Z,10.21
2019-03-28T07:24:51.962Z,10.15
2019-03-28T07:30:56.562Z,10.26
2019-03-28T07:37:01.136Z,10.15
2019-03-28T07:43:05.792Z,10.02
2019-03-28T07:49:10.375Z,9.90
2019-03-28T07:55:16.697Z,10.01
2019-03-28T08:01:21.458Z,10.05
2019-03-28T08:07:26.054Z,10.07
2019-03-28T08:13:30.687Z,10.03
2019-03-28T08:19:35.274Z,10.29
2019-03-28T08:25:40.069Z,10.39
2019-03-28T08:31:46.590Z,10.30
2019-03-28T08:37:51.324Z,10.71
2019-03-28T08:43:55.924Z,10.81
2019-03-28T08:50:00.528Z,10.87
2019-03-28T08:56:05.118Z,10.73
2019-03-28T09:02:09.770Z,11.27
2019-03-28T09:08:14.364Z,11.45
2019-03-28T09:14:18.958Z,11.21
2019-03-28T09:20:23.618Z,11.15
2019-03-28T09:26:28.287Z,11.46
2019-03-28T09:32:33.045Z,13.09
2019-03-28T09:38:37.639Z,16.42
2019-03-28T09:44:42.225Z,17.05
2019-03-28T09:50:46.817Z,17.27
2019-03-28T09:56:51.430Z,16.89
2019-03-28T10:02:56.079Z,16.34
2019-03-28T10:09:00.738Z,15.11
2019-03-28T10:15:08.050Z,15.01
2019-03-28T10:21:12.716Z,16.42
2019-03-28T10:27:19.195Z,15.87
2019-03-28T10:33:24.538Z,16.09
2019-03-28T10:39:29.421Z,20.06
2019-03-28T10:45:34.138Z,17.47
2019-03-28T10:51:38.807Z,15.61
2019-03-28T10:57:43.437Z,18.07
2019-03-28T11:03:48.809Z,16.83
2019-03-28T11:09:53.408Z,15.54
2019-03-28T11:15:58.019Z,14.78
2019-03-28T11:22:02.605Z,14.04
2019-03-28T11:28:07.365Z,13.86
2019-03-28T11:34:12.067Z,14.87
2019-03-28T11:40:16.895Z,14.28
2019-03-28T11:46:21.493Z,15.74
2019-03-28T11:52:26.075Z,15.36
2019-03-28T11:58:30.690Z,14.39
2019-03-28T12:04:38.541Z,13.79
2019-03-28T12:10:41.675Z,13.44
2019-03-28T12:16:46.273Z,13.10
2019-03-28T12:22:55.754Z,13.15
2019-03-28T12:28:58.782Z,13.63
2019-03-28T12:35:03.371Z,14.09
2019-03-28T12:41:08.041Z,13.88
2019-03-28T12:47:12.706Z,13.74
2019-03-28T12:53:17.300Z,13.98
2019-03-28T12:59:21.892Z,13.85
2019-03-28T13:05:26.482Z,13.71
2019-03-28T13:11:31.069Z,13.82
2019-03-28T13:17:35.680Z,13.73
2019-03-28T13:23:40.364Z,13.92
2019-03-28T13:29:44.975Z,13.74
2019-03-28T13:35:49.547Z,13.66
2019-03-28T13:41:54.192Z,13.70
2019-03-28T13:47:58.753Z,13.64
2019-03-28T13:54:03.307Z,13.65
2019-03-28T14:00:10.678Z,13.74
2019-03-28T14:06:15.310Z,14.10
2019-03-28T14:12:23.332Z,13.99
2019-03-28T14:18:27.187Z,14.09
2019-03-28T14:24:31.757Z,14.11
2019-03-28T14:30:39.408Z,13.96
2019-03-28T14:36:42.619Z,13.82
2019-03-28T14:42:47.169Z,13.79
2019-03-28T14:48:51.780Z,13.61
2019-03-28T14:54:56.474Z,13.38
2019-03-28T15:01:01.108Z,13.13
2019-03-28T15:07:07.373Z,13.28
2019-03-28T15:13:12.186Z,13.19
2019-03-28T15:19:16.765Z,13.27
2019-03-28T15:25:21.399Z,13.25
2019-03-28T15:31:26.042Z,13.26
2019-03-28T15:37:30.624Z,12.96
2019-03-28T15:43:35.269Z,12.89
2019-03-28T15:49:39.888Z,12.95
2019-03-28T15:55:44.472Z,12.85
2019-03-28T16:01:49.107Z,12.73
2019-03-28T16:07:59.295Z,12.76
2019-03-28T16:14:03.418Z,12.69
2019-03-28T16:20:09.282Z,12.61
2019-03-28T16:26:13.909Z,12.48
2019-03-28T16:32:18.541Z,12.48
2019-03-28T16:38:23.098Z,12.46
2019-03-28T16:44:27.718Z,12.50
2019-03-28T16:50:32.290Z,12.52
2019-03-28T16:56:36.948Z,12.43
2019-03-28T17:02:41.768Z,12.38
2019-03-28T17:08:46.881Z,12.33
2019-03-28T17:14:51.801Z,12.34
2019-03-28T17:20:57.315Z,12.24
2019-03-28T17:27:01.959Z,12.38
2019-03-28T17:33:06.542Z,12.08
2019-03-28T17:39:11.118Z,11.77
2019-03-28T17:45:15.688Z,11.42
2019-03-28T17:51:20.323Z,11.04
2019-03-28T17:57:24.915Z,10.83
2019-03-28T18:03:31.360Z,10.53
2019-03-28T18:09:35.887Z,10.59
2019-03-28T18:15:40.707Z,10.50
2019-03-28T18:21:46.044Z,10.41
2019-03-28T18:27:50.753Z,10.39
2019-03-28T18:33:55.305Z,10.27
2019-03-28T18:39:59.858Z,10.30
2019-03-28T18:46:04.474Z,10.39
2019-03-28T18:52:09.170Z,10.39
2019-03-28T18:58:13.735Z,10.49
2019-03-28T19:04:18.297Z,10.43
2019-03-28T19:10:23.006Z,10.68
2019-03-28T19:16:27.592Z,10.61
2019-03-28T19:22:32.211Z,10.57
2019-03-28T19:28:36.765Z,10.56
2019-03-28T19:34:41.406Z,10.54
2019-03-28T19:40:46.039Z,10.53
2019-03-28T19:46:50.667Z,10.41
2019-03-28T19:52:55.297Z,10.50
2019-03-28T19:58:59.873Z,10.46
2019-03-28T20:05:06.215Z,10.42
2019-03-28T20:11:10.939Z,10.15
2019-03-28T20:17:15.755Z,9.81
2019-03-28T20:23:20.329Z,9.55
2019-03-28T20:29:24.938Z,9.33
2019-03-28T20:35:29.562Z,9.01
2019-03-28T20:41:34.180Z,8.82
2019-03-28T20:47:40.410Z,8.60
2019-03-28T20:53:44.990Z,8.32
2019-03-28T20:59:49.646Z,8.27
2019-03-28T21:05:54.326Z,8.06
2019-03-28T21:11:58.972Z,7.74
2019-03-28T21:18:03.622Z,7.61
2019-03-28T21:24:08.192Z,7.69
2019-03-28T21:30:13.220Z,7.72
2019-03-28T21:36:29.105Z,7.43
2019-03-28T21:42:24.070Z,7.23
2019-03-28T21:48:28.640Z,7.38
2019-03-28T21:54:33.264Z,7.30
2019-03-28T22:00:37.891Z,7.20
2019-03-28T22:06:43.407Z,7.27
2019-03-28T22:12:48.264Z,7.27
2019-03-28T22:18:52.905Z,7.11
2019-03-28T22:24:57.528Z,7.07
2019-03-28T22:31:02.144Z,7.18
2019-03-28T22:37:06.694Z,7.10
2019-03-28T22:43:11.246Z,6.63
2019-03-28T22:49:15.823Z,6.60
2019-03-28T22:55:20.391Z,6.42
2019-03-28T23:01:25.112Z,6.49
2019-03-28T23:07:29.670Z,6.78
2019-03-28T23:13:34.332Z,6.91
2019-03-28T23:19:38.888Z,7.11
2019-03-28T23:25:43.448Z,7.31
2019-03-28T23:31:50.655Z,7.41
2019-03-28T23:37:54.350Z,7.46
2019-03-28T23:43:58.913Z,7.47
2019-03-28T23:50:03.661Z,7.50
2019-03-28T23:56:08.208Z,7.68
